CMA CGM Butterfly — A8NO8 — position and weather

sailwx.info

Track history (hours):
 
Tides and Currents Weather Stations Pressure Air Temp Water Temp Dewpoint Dewpoint Depression Visibility Wind Speed Wind Dir Waves Ship Positions

CMA CGM Butterfly

Last reported at 2015-May-04 13:33 UTC. Time now 2015-May-04 14:05 UTC.
Position N 38°42' E 004°22'.

Length 350 m; draft 11.3 m.

Type: Ship (hazmat cat A). MMSI: 636091420.

Date/timePositionNaut miles runAvg speedWind from/ knotsBaromVisibWave heightAir tempDewpointWater temp
2015-May-04 13:33N 38°42' E 004°22'2019.8
2015-May-04 12:33N 38°37' E 004°47'1222.2
2015-May-04 12:00N 38°30' E 005°00'1022.4 130 / 161010.010.8 1.024.0
2015-May-04 11:34N 38°33' E 005°12'1919.2
2015-May-04 10:34N 38°29' E 005°36'10219.8
2015-May-04 05:26N 38°05' E 007°42'2220.0
2015-May-04 04:20N 37°59' E 008°08'1620.3
2015-May-04 03:34N 37°55' E 008°28'2019.6
2015-May-04 02:34N 37°52' E 008°52'1919.2
2015-May-04 01:33N 37°48' E 009°16'2817.8
2015-May-04 00:00N 37°36' E 009°48'3121.3 180 / 61013.510.8 19.5
2015-May-03 22:33N 37°38' E 010°27'1919.2
2015-May-03 21:33N 37°33' E 010°50'1919.2
2015-May-03 20:34N 37°28' E 011°13'6019.8
2015-May-03 17:33N 36°55' E 012°16'2020.1
2015-May-03 16:33N 36°43' E 012°37'2020.4
2015-May-03 15:34N 36°32' E 012°57'2020.5
2015-May-03 14:34N 36°21' E 013°18'2120.3
2015-May-03 13:33N 36°09' E 013°39'2019.8
2015-May-03 12:34N 35°58' E 013°60'2019.8
2015-May-03 11:34N 35°47' E 014°20'1110.6
2015-May-03 10:33N 35°49' E 014°33'1 0.6
2015-May-03 09:32N 35°49' E 014°32'0 0.0
2015-May-03 08:32N 35°49' E 014°32'0 0.0
2015-May-03 07:32N 35°49' E 014°32'0 0.0
2015-May-03 06:32N 35°49' E 014°32'0 0.0
2015-May-03 05:26N 35°49' E 014°32'0 0.0
2015-May-03 04:08N 35°49' E 014°32'0 0.0
2015-May-03 03:32N 35°49' E 014°32'0 0.0
2015-May-03 02:33N 35°49' E 014°32'0 0.0
2015-May-03 01:29N 35°49' E 014°32'0 0.0
2015-May-03 00:32N 35°49' E 014°32'0 0.0
2015-May-02 23:32N 35°49' E 014°32'0 0.0
2015-May-02 22:32N 35°49' E 014°32'0 0.0
2015-May-02 21:32N 35°49' E 014°32'0 0.0
2015-May-02 20:32N 35°49' E 014°32'0 0.0
2015-May-02 19:32N 35°49' E 014°32'0 0.0
2015-May-02 18:32N 35°49' E 014°32'0 0.0
2015-May-02 17:29N 35°49' E 014°32'0 0.0
2015-May-02 16:32N 35°49' E 014°32'0 0.0
2015-May-02 15:32N 35°49' E 014°32'0 0.0
2015-May-02 14:23N 35°49' E 014°32'0 0.0
2015-May-02 13:05N 35°49' E 014°32'0 0.0
2015-May-02 10:20N 35°49' E 014°32'0 0.0
2015-May-02 05:29N 35°49' E 014°32'1 0.5
2015-May-02 04:33N 35°49' E 014°33'2 2.3
2015-May-02 03:33N 35°48' E 014°35'4 4.2
2015-May-02 02:34N 35°46' E 014°40'1313.5
2015-May-02 01:34N 35°43' E 014°56'1514.7
2015-May-02 00:34N 35°40' E 015°13'916.7
2015-May-02 00:00N 35°36' E 015°24'613.3 220 / 51018.010.8 17.0
2015-May-01 23:34N 35°36' E 015°31'1414.3
2015-May-01 22:33N 35°33' E 015°48'1414.5
2015-May-01 21:33N 35°29' E 016°05'1514.5
2015-May-01 20:33N 35°26' E 016°23'1914.4
2015-May-01 19:14N 35°21' E 016°45'1014.7
2015-May-01 18:33N 35°18' E 016°57'1017.2
2015-May-01 18:00N 35°12' E 017°06'817.2 250 / 81020.010.8 3.019.014.2
2015-May-01 17:33N 35°15' E 017°15'1514.6
2015-May-01 16:33N 35°12' E 017°32'1815.2
2015-May-01 15:23N 35°07' E 017°53'4215.0
2015-May-01 12:34N 34°57' E 018°43'5115.1
2015-May-01 09:09N 34°44' E 019°44'33816.0
2015-Apr-30 12:00N 33°18' E 026°18'20013.0 280 / 121018.010.8 0.519.0
2015-Apr-29 20:33N 32°34' E 030°10'1312.7
2015-Apr-29 19:32N 32°30' E 030°25'1212.7
2015-Apr-29 18:33N 32°25' E 030°38'1313.0
2015-Apr-29 17:33N 32°19' E 030°52'1313.2
2015-Apr-29 16:33N 32°11' E 031°05'1513.1
2015-Apr-29 15:26N 32°04' E 031°20'1112.6
2015-Apr-29 14:33N 31°59' E 031°32'1212.6
2015-Apr-29 13:33N 31°53' E 031°45'1512.8
2015-Apr-29 12:25N 31°46' E 031°59'1213.8
2015-Apr-29 11:33N 31°37' E 032°09'1414.4
2015-Apr-29 10:33N 31°28' E 032°22'1212.1
2015-Apr-29 09:32N 31°16' E 032°21'10 9.9
2015-Apr-29 08:33N 31°07' E 032°19'14 9.8
2015-Apr-29 07:08N 30°53' E 032°19'6 9.7
2015-Apr-29 06:33N 30°47' E 032°19'9 9.2
2015-Apr-29 05:33N 30°38' E 032°20'19 8.5
2015-Apr-29 03:21N 30°20' E 032°24'46310.6
2015-Apr-27 07:33N 23°46' E 036°59'1212.3
2015-Apr-27 06:33N 23°36' E 037°06'1312.7
2015-Apr-27 05:33N 23°26' E 037°14'1312.7
2015-Apr-27 04:33N 23°15' E 037°22'1312.6
2015-Apr-27 03:33N 23°05' E 037°30'1212.3
2015-Apr-27 02:33N 22°55' E 037°38'1212.2
2015-Apr-27 01:33N 22°45' E 037°46'1211.9
2015-Apr-27 00:33N 22°35' E 037°53'1211.9
2015-Apr-26 23:33N 22°25' E 037°60'1211.8
2015-Apr-26 22:33N 22°15' E 038°07'1212.5
2015-Apr-26 21:33N 22°05' E 038°15'63 4.5
2015-Apr-26 07:32N 21°29' E 039°10'  
Track history (hours):
 
Tides and Currents Weather Stations Pressure Air Temp Water Temp Dewpoint Dewpoint Depression Visibility Wind Speed Wind Dir Waves Ship Positions

CMA CGM Butterfly

Last reported at 2015-May-04 13:33 UTC. Time now 2015-May-04 14:05 UTC.
Position N 38°42' E 004°22'.

Length 350 m; draft 11.3 m.

Type: Ship (hazmat cat A). MMSI: 636091420.

Date/timePositionNaut miles runAvg speedWind from/ knotsBaromVisibWave heightAir tempDewpointWater temp
2015-May-04 13:33N 38°42' E 004°22'2019.8
2015-May-04 12:33N 38°37' E 004°47'1222.2
2015-May-04 12:00N 38°30' E 005°00'1022.4 130 / 161010.010.8 1.024.0
2015-May-04 11:34N 38°33' E 005°12'1919.2
2015-May-04 10:34N 38°29' E 005°36'10219.8
2015-May-04 05:26N 38°05' E 007°42'2220.0
2015-May-04 04:20N 37°59' E 008°08'1620.3
2015-May-04 03:34N 37°55' E 008°28'2019.6
2015-May-04 02:34N 37°52' E 008°52'1919.2
2015-May-04 01:33N 37°48' E 009°16'2817.8
2015-May-04 00:00N 37°36' E 009°48'3121.3 180 / 61013.510.8 19.5
2015-May-03 22:33N 37°38' E 010°27'1919.2
2015-May-03 21:33N 37°33' E 010°50'1919.2
2015-May-03 20:34N 37°28' E 011°13'6019.8
2015-May-03 17:33N 36°55' E 012°16'2020.1
2015-May-03 16:33N 36°43' E 012°37'2020.4
2015-May-03 15:34N 36°32' E 012°57'2020.5
2015-May-03 14:34N 36°21' E 013°18'2120.3
2015-May-03 13:33N 36°09' E 013°39'2019.8
2015-May-03 12:34N 35°58' E 013°60'2019.8
2015-May-03 11:34N 35°47' E 014°20'1110.6
2015-May-03 10:33N 35°49' E 014°33'1 0.6
2015-May-03 09:32N 35°49' E 014°32'0 0.0
2015-May-03 08:32N 35°49' E 014°32'0 0.0
2015-May-03 07:32N 35°49' E 014°32'0 0.0
2015-May-03 06:32N 35°49' E 014°32'0 0.0
2015-May-03 05:26N 35°49' E 014°32'0 0.0
2015-May-03 04:08N 35°49' E 014°32'0 0.0
2015-May-03 03:32N 35°49' E 014°32'0 0.0
2015-May-03 02:33N 35°49' E 014°32'0 0.0
2015-May-03 01:29N 35°49' E 014°32'0 0.0
2015-May-03 00:32N 35°49' E 014°32'0 0.0
2015-May-02 23:32N 35°49' E 014°32'0 0.0
2015-May-02 22:32N 35°49' E 014°32'0 0.0
2015-May-02 21:32N 35°49' E 014°32'0 0.0
2015-May-02 20:32N 35°49' E 014°32'0 0.0
2015-May-02 19:32N 35°49' E 014°32'0 0.0
2015-May-02 18:32N 35°49' E 014°32'0 0.0
2015-May-02 17:29N 35°49' E 014°32'0 0.0
2015-May-02 16:32N 35°49' E 014°32'0 0.0
2015-May-02 15:32N 35°49' E 014°32'0 0.0
2015-May-02 14:23N 35°49' E 014°32'0 0.0
2015-May-02 13:05N 35°49' E 014°32'0 0.0
2015-May-02 10:20N 35°49' E 014°32'0 0.0
2015-May-02 05:29N 35°49' E 014°32'1 0.5
2015-May-02 04:33N 35°49' E 014°33'2 2.3
2015-May-02 03:33N 35°48' E 014°35'4 4.2
2015-May-02 02:34N 35°46' E 014°40'1313.5
2015-May-02 01:34N 35°43' E 014°56'1514.7
2015-May-02 00:34N 35°40' E 015°13'916.7
2015-May-02 00:00N 35°36' E 015°24'613.3 220 / 51018.010.8 17.0
2015-May-01 23:34N 35°36' E 015°31'1414.3
2015-May-01 22:33N 35°33' E 015°48'1414.5
2015-May-01 21:33N 35°29' E 016°05'1514.5
2015-May-01 20:33N 35°26' E 016°23'1914.4
2015-May-01 19:14N 35°21' E 016°45'1014.7
2015-May-01 18:33N 35°18' E 016°57'1017.2
2015-May-01 18:00N 35°12' E 017°06'817.2 250 / 81020.010.8 3.019.014.2
2015-May-01 17:33N 35°15' E 017°15'1514.6
2015-May-01 16:33N 35°12' E 017°32'1815.2
2015-May-01 15:23N 35°07' E 017°53'4215.0
2015-May-01 12:34N 34°57' E 018°43'5115.1
2015-May-01 09:09N 34°44' E 019°44'33816.0
2015-Apr-30 12:00N 33°18' E 026°18'20013.0 280 / 121018.010.8 0.519.0
2015-Apr-29 20:33N 32°34' E 030°10'1312.7
2015-Apr-29 19:32N 32°30' E 030°25'1212.7
2015-Apr-29 18:33N 32°25' E 030°38'1313.0
2015-Apr-29 17:33N 32°19' E 030°52'1313.2
2015-Apr-29 16:33N 32°11' E 031°05'1513.1
2015-Apr-29 15:26N 32°04' E 031°20'1112.6
2015-Apr-29 14:33N 31°59' E 031°32'1212.6
2015-Apr-29 13:33N 31°53' E 031°45'1512.8
2015-Apr-29 12:25N 31°46' E 031°59'1213.8
2015-Apr-29 11:33N 31°37' E 032°09'1414.4
2015-Apr-29 10:33N 31°28' E 032°22'1212.1
2015-Apr-29 09:32N 31°16' E 032°21'10 9.9
2015-Apr-29 08:33N 31°07' E 032°19'14 9.8
2015-Apr-29 07:08N 30°53' E 032°19'6 9.7
2015-Apr-29 06:33N 30°47' E 032°19'9 9.2
2015-Apr-29 05:33N 30°38' E 032°20'19 8.5
2015-Apr-29 03:21N 30°20' E 032°24'46310.6
2015-Apr-27 07:33N 23°46' E 036°59'1212.3
2015-Apr-27 06:33N 23°36' E 037°06'1312.7
2015-Apr-27 05:33N 23°26' E 037°14'1312.7
2015-Apr-27 04:33N 23°15' E 037°22'1312.6
2015-Apr-27 03:33N 23°05' E 037°30'1212.3
2015-Apr-27 02:33N 22°55' E 037°38'1212.2
2015-Apr-27 01:33N 22°45' E 037°46'1211.9
2015-Apr-27 00:33N 22°35' E 037°53'1211.9
2015-Apr-26 23:33N 22°25' E 037°60'1211.8
2015-Apr-26 22:33N 22°15' E 038°07'1212.5
2015-Apr-26 21:33N 22°05' E 038°15'63 4.5
2015-Apr-26 07:32N 21°29' E 039°10'  

Dump ship's entire track history